Terminal Aerodrome Forecast
Issued by NWS

Home | Current Version | Previous Version | Text Only | Print | Product List | Glossary On
Versions: 1 2 3 4 5 6 7 8 9 10 11 12 13 14 15 16 17 18 19 20 21 22 23 24 25
956
FTUS41 KCAR 061120
TAFHUL
TAF
KHUL 061120Z 0612/0712 00000KT P6SM -SN SKC
     FM061600 24005KT P6SM BKN040
     FM061800 21006KT P6SM BKN025
     FM070200 21008KT 6SM -SN OVC025
     FM071100 29012G22KT 3SM -SHSN OVC018=

USA.gov is the U.S. government's official web portal to all federal, state and local government web resources and services.